Time;durP1;ratioP1;P1;durP2;ratioP2;P2;SDS_P1;SDS_P2;PMS_P1;PMS_P2;Temp;Humidity;BMP_temperature;BMP_pressure;BME280_temperature;BME280_humidity;BME280_pressure;Samples;Min_cycle;Max_cycle;Signal;HPM_P1;HPM_P2
2023/05/29 00:00:13;;;;;;;10.43;3.40;;;;;;;9.86;75.01;102118.31;5036833;28;19971;-82
2023/05/29 00:02:39;;;;;;;14.07;3.47;;;;;;;9.81;75.53;102119.78;5049130;28;20040;-81
2023/05/29 00:05:05;;;;;;;9.15;2.88;;;;;;;9.76;75.55;102128.34;5047940;28;20526;-81
2023/05/29 00:07:32;;;;;;;12.63;3.70;;;;;;;9.70;75.72;102135.19;5049091;28;20025;-81
2023/05/29 00:09:57;;;;;;;14.65;3.38;;;;;;;9.67;75.75;102130.13;5049631;28;20082;-81
2023/05/29 00:12:23;;;;;;;10.30;3.00;;;;;;;9.65;75.45;102126.75;5050660;28;20025;-82
2023/05/29 00:14:49;;;;;;;11.02;2.97;;;;;;;9.60;75.68;102128.25;5047625;28;20031;-82
2023/05/29 00:17:15;;;;;;;;;;;;;;;9.53;75.99;102126.19;5050096;28;20504;-82
2023/05/29 00:19:41;;;;;;;14.15;3.17;;;;;;;9.47;75.79;102134.03;5047884;28;20367;-82
2023/05/29 00:22:06;;;;;;;;;;;;;;;9.42;76.15;102136.38;5049893;28;20031;-81
2023/05/29 00:24:32;;;;;;;12.65;3.00;;;;;;;9.37;76.03;102136.81;5044651;28;19916;-81
2023/05/29 00:26:57;;;;;;;;;;;;;;;9.32;76.19;102140.00;5050867;28;20044;-82
2023/05/29 00:29:22;;;;;;;17.23;3.27;;;;;;;9.25;76.32;102134.41;5052370;28;19917;-81
2023/05/29 00:31:48;;;;;;;;;;;;;;;9.20;76.64;102139.41;5053237;28;20033;-82
2023/05/29 00:34:13;;;;;;;11.30;2.92;;;;;;;9.17;76.64;102145.09;5052215;28;19917;-82
2023/05/29 00:36:39;;;;;;;;;;;;;;;9.13;76.60;102138.34;5052084;28;20021;-81
2023/05/29 00:39:05;;;;;;;13.05;3.38;;;;;;;9.09;77.06;102148.53;5032308;28;20501;-82
2023/05/29 00:41:30;;;;;;;;;;;;;;;9.08;76.99;102148.72;5036442;28;20037;-81
2023/05/29 00:43:55;;;;;;;10.23;2.97;;;;;;;9.05;76.60;102149.88;5052106;28;19928;-82
2023/05/29 00:46:20;;;;;;;;;;;;;;;9.01;77.21;102158.38;5053112;28;20078;-82
2023/05/29 00:48:46;;;;;;;16.13;3.10;;;;;;;8.97;77.00;102143.59;5036480;28;20283;-82
2023/05/29 00:51:11;;;;;;;;;;;;;;;8.94;76.81;102156.31;5037460;28;20025;-82
2023/05/29 00:53:36;;;;;;;12.33;3.10;;;;;;;8.87;77.18;102151.72;5034009;28;19925;-81
2023/05/29 00:56:02;;;;;;;;;;;;;;;8.85;77.24;102143.81;5020099;28;20040;-81
2023/05/29 00:58:27;;;;;;;9.73;2.63;;;;;;;8.85;76.88;102151.03;5053537;28;19924;-81
2023/05/29 01:00:53;;;;;;;;;;;;;;;8.82;77.04;102151.31;5049584;28;20397;-82
2023/05/29 01:03:19;;;;;;;16.92;3.28;;;;;;;8.81;77.00;102155.88;5044508;28;19924;-81
2023/05/29 01:05:45;;;;;;;;;;;;;;;8.77;76.65;102155.31;5057112;28;20362;-82
2023/05/29 01:08:10;;;;;;;12.85;2.55;;;;;;;8.72;76.73;102152.25;5055378;28;19916;-82
2023/05/29 01:10:35;;;;;;;;;;;;;;;8.68;76.77;102156.25;5055087;28;20033;-81
2023/05/29 01:13:10;;;;;;;14.10;2.80;;;;;;;8.65;77.25;102160.03;5038294;28;19921;-81
2023/05/29 01:15:37;;;;;;;17.10;3.40;;;;;;;8.65;77.15;102159.22;5054691;28;20036;-82
2023/05/29 01:18:31;;;;;;;15.88;3.00;;;;;;;8.59;77.26;102155.31;5041875;28;20029;-81
2023/05/29 01:20:58;;;;;;;13.23;2.72;;;;;;;8.56;77.82;102163.66;5042569;28;20037;-81
2023/05/29 01:24:01;;;;;;;12.38;2.95;;;;;;;8.54;77.94;102162.97;5055292;28;20063;-81
2023/05/29 01:26:46;;;;;;;11.50;3.00;;;;;;;8.55;77.73;102161.13;5072186;28;20051;-81
2023/05/29 01:29:14;;;;;;;12.05;2.70;;;;;;;8.50;77.78;102180.34;5053152;28;20377;-81
2023/05/29 01:31:39;;;;;;;13.85;3.42;;;;;;;8.47;77.92;102177.97;5052266;28;20037;-81
2023/05/29 01:34:04;;;;;;;;;;;;;;;8.42;78.21;102169.50;5029543;28;20044;-81
2023/05/29 01:36:31;;;;;;;12.80;3.63;;;;;;;8.37;78.14;102178.00;5046835;28;20018;-82
2023/05/29 01:38:56;;;;;;;13.20;3.30;;;;;;;8.40;78.71;102174.19;5048765;28;20123;-81
2023/05/29 01:41:22;;;;;;;;;;;;;;;8.31;78.22;102182.13;5017330;28;20021;-82
2023/05/29 01:43:47;;;;;;;14.80;3.25;;;;;;;8.26;78.98;102181.75;5047140;28;20364;-81
2023/05/29 01:46:12;;;;;;;;;;;;;;;8.20;79.53;102179.63;5027007;28;20029;-81
2023/05/29 01:48:38;;;;;;;9.45;2.42;;;;;;;8.17;79.31;102186.16;5029175;28;19999;-81
2023/05/29 01:51:03;;;;;;;;;;;;;;;8.11;79.60;102181.38;5048270;28;20023;-81
2023/05/29 01:53:29;;;;;;;16.70;3.37;;;;;;;8.02;79.88;102175.06;5027690;28;19919;-80
2023/05/29 01:55:55;;;;;;;14.02;2.90;;;;;;;7.99;79.89;102178.03;5030539;28;20283;-81
2023/05/29 01:58:20;;;;;;;;;;;;;;;7.98;80.06;102181.69;5030140;28;20047;-81
2023/05/29 02:00:46;;;;;;;10.85;3.35;;;;;;;7.97;80.32;102184.53;5029863;28;19918;-81
2023/05/29 02:03:11;;;;;;;;;;;;;;;7.95;80.23;102190.03;5046139;28;20037;-81
2023/05/29 02:05:36;;;;;;;14.50;3.50;;;;;;;7.92;80.99;102179.63;5051770;28;19971;-83
2023/05/29 02:08:02;;;;;;;;;;;;;;;7.92;80.75;102187.66;5051169;28;20283;-83
2023/05/29 02:10:27;;;;;;;15.33;3.13;;;;;;;7.88;81.33;102191.63;5047311;28;19962;-81
2023/05/29 02:12:52;;;;;;;;;;;;;;;7.86;81.08;102193.59;5051714;28;20028;-81
2023/05/29 02:15:18;;;;;;;12.80;3.10;;;;;;;7.88;80.43;102194.31;5050295;28;19931;-81
2023/05/29 02:17:44;;;;;;;;;;;;;;;7.85;80.76;102199.94;5049618;28;20342;-81
2023/05/29 02:20:10;;;;;;;14.77;3.20;;;;;;;7.81;81.34;102193.19;5039716;28;20374;-81
2023/05/29 02:22:36;;;;;;;12.27;3.13;;;;;;;7.83;81.01;102202.78;5050821;28;20029;-81
2023/05/29 02:25:01;;;;;;;;;;;;;;;7.78;81.68;102199.69;5050220;28;20017;-81
2023/05/29 02:27:26;;;;;;;15.47;2.87;;;;;;;7.76;81.65;102203.53;5050802;28;19959;-81
2023/05/29 02:29:52;;;;;;;;;;;;;;;7.74;81.86;102195.59;5050885;28;20845;-82
2023/05/29 02:32:17;;;;;;;11.63;2.97;;;;;;;7.68;81.63;102194.34;5047982;28;19916;-82
2023/05/29 02:34:42;;;;;;;;;;;;;;;7.69;81.96;102204.09;5048577;28;20138;-82
2023/05/29 02:37:08;;;;;;;10.57;2.47;;;;;;;7.66;82.16;102193.66;5045033;28;19917;-81
2023/05/29 02:39:33;;;;;;;;;;;;;;;7.64;81.40;102192.94;5045695;28;20105;-81
2023/05/29 02:41:58;;;;;;;16.67;3.23;;;;;;;7.61;82.15;102185.19;5059972;28;19919;-80
2023/05/29 02:44:24;;;;;;;;;;;;;;;7.59;81.63;102181.81;5049098;28;20300;-81
2023/05/29 02:46:49;;;;;;;10.27;3.47;;;;;;;7.60;81.31;102183.50;5051273;28;19917;-81
2023/05/29 02:49:14;;;;;;;;;;;;;;;7.56;81.40;102182.13;5052588;28;20505;-81
2023/05/29 02:51:40;;;;;;;11.30;3.00;;;;;;;7.53;81.33;102190.44;5051419;28;19913;-83
2023/05/29 02:54:05;;;;;;;;;;;;;;;7.51;81.69;102185.19;5029721;28;20039;-80
2023/05/29 02:56:30;;;;;;;13.75;3.05;;;;;;;7.50;81.59;102180.00;5049931;28;20348;-80
2023/05/29 02:58:55;;;;;;;;;;;;;;;7.46;81.62;102181.28;5047842;28;20025;-82
2023/05/29 03:01:21;;;;;;;11.87;3.43;;;;;;;7.49;81.58;102191.72;5046084;28;19921;-82
2023/05/29 03:03:46;;;;;;;;;;;;;;;7.43;81.46;102185.91;5047632;28;20017;-82
2023/05/29 03:06:16;;;;;;;10.43;2.80;;;;;;;7.39;81.99;102187.22;5045267;28;19925;-82
2023/05/29 03:08:44;;;;;;;13.75;2.70;;;;;;;7.42;81.81;102186.91;5029843;28;20291;-82
2023/05/29 03:11:10;;;;;;;15.02;3.20;;;;;;;7.43;81.67;102196.63;5053630;28;20025;-81
2023/05/29 03:13:36;;;;;;;;;;;;;;;7.41;81.98;102198.63;5056834;28;20044;-81
2023/05/29 03:16:01;;;;;;;10.50;2.53;;;;;;;7.43;82.02;102198.50;5053786;28;19942;-80
2023/05/29 03:18:27;;;;;;;14.38;3.67;;;;;;;7.38;81.84;102200.75;5053607;28;20021;-82
2023/05/29 03:20:53;;;;;;;;;;;;;;;7.34;81.59;102205.53;5054109;28;20041;-83
2023/05/29 03:23:18;;;;;;;11.75;2.75;;;;;;;7.33;82.18;102213.72;5049437;28;19948;-82
2023/05/29 03:25:43;;;;;;;;;;;;;;;7.30;81.69;102198.78;5051800;28;20031;-82
2023/05/29 03:28:09;;;;;;;11.63;3.13;;;;;;;7.26;82.33;102200.91;5050778;28;19912;-82
2023/05/29 03:30:34;;;;;;;;;;;;;;;7.27;82.29;102212.44;5050768;28;20039;-82
2023/05/29 03:33:03;;;;;;;9.53;2.80;;;;;;;7.26;81.81;102203.56;5047115;28;19916;-80
2023/05/29 03:35:29;;;;;;;12.02;2.80;;;;;;;7.23;82.23;102206.53;5046111;28;20029;-81
2023/05/29 03:37:55;;;;;;;13.60;2.95;;;;;;;7.28;81.90;102206.09;5049364;28;20029;-80
2023/05/29 03:40:21;;;;;;;;;;;;;;;7.32;82.32;102204.84;5063145;28;20130;-80
2023/05/29 03:42:46;;;;;;;14.50;3.50;;;;;;;7.33;81.87;102198.50;5062528;28;19927;-81
2023/05/29 03:45:11;;;;;;;;;;;;;;;7.34;81.21;102193.97;5046261;28;20025;-80
2023/05/29 03:47:36;;;;;;;14.87;2.90;;;;;;;7.35;81.50;102195.66;5049338;28;19920;-86
2023/05/29 03:50:02;;;;;;;;;;;;;;;7.35;81.42;102206.38;5050960;28;20299;-84
2023/05/29 03:52:27;;;;;;;15.43;2.73;;;;;;;7.37;80.96;102199.03;5049250;28;19920;-85
2023/05/29 03:54:52;;;;;;;;;;;;;;;7.39;81.46;102216.69;5015791;28;20333;-84
2023/05/29 03:57:18;;;;;;;15.30;2.70;;;;;;;7.43;80.92;102201.16;5050768;28;19920;-85
2023/05/29 03:59:43;;;;;;;;;;;;;;;7.46;80.38;102208.06;5049772;28;20041;-85
2023/05/29 04:02:08;;;;;;;13.37;3.37;;;;;;;7.48;80.77;102216.81;5047993;28;19927;-84
2023/05/29 04:04:34;;;;;;;;;;;;;;;7.56;80.43;102203.56;5047516;28;20025;-85
2023/05/29 04:06:59;;;;;;;18.27;3.60;;;;;;;7.60;79.98;102210.28;5047186;28;19924;-85
2023/05/29 04:09:24;;;;;;;;;;;;;;;7.63;79.77;102218.06;5049122;28;20025;-85
2023/05/29 04:11:51;;;;;;;10.47;2.60;;;;;;;7.66;79.88;102225.81;5047538;28;20322;-85
2023/05/29 04:14:18;;;;;;;10.43;2.80;;;;;;;7.72;79.32;102225.25;5050700;28;20043;-85
2023/05/29 04:16:43;;;;;;;12.70;2.95;;;;;;;7.78;79.00;102228.31;5051363;28;20040;-85
2023/05/29 04:19:09;;;;;;;;;;;;;;;7.82;78.70;102230.59;5050193;28;20090;-85
2023/05/29 04:21:34;;;;;;;16.10;2.97;;;;;;;7.87;78.26;102227.47;5050433;28;20026;-85
2023/05/29 04:24:00;;;;;;;;;;;;;;;7.97;78.26;102238.16;5050543;28;20025;-84
2023/05/29 04:26:25;;;;;;;12.13;2.53;;;;;;;8.19;77.70;102239.66;5045173;28;19924;-85
2023/05/29 04:28:56;;;;;;;;;;;;;;;8.53;76.62;102244.47;5045885;28;20017;-84
2023/05/29 04:31:26;;;;;;;13.63;3.03;;;;;;;8.77;74.76;102232.34;5045506;28;19940;-85
2023/05/29 04:33:55;;;;;;;18.90;2.92;;;;;;;9.12;73.52;102233.38;5044084;28;20032;-85
2023/05/29 04:36:25;;;;;;;12.35;2.95;;;;;;;9.49;72.42;102229.69;5045889;28;20392;-84
2023/05/29 04:38:51;;;;;;;12.57;3.10;;;;;;;9.75;71.05;102217.25;5045687;28;20107;-85
2023/05/29 04:41:16;;;;;;;13.27;3.30;;;;;;;9.74;70.34;102221.78;5032898;28;20078;-84
2023/05/29 04:43:42;;;;;;;14.90;3.83;;;;;;;9.42;71.44;102222.38;5050062;28;20064;-85
2023/05/29 04:46:12;;;;;;;13.30;3.33;;;;;;;9.29;72.03;102220.09;5051862;28;20017;-82
2023/05/29 04:48:40;;;;;;;13.30;2.95;;;;;;;9.27;72.03;102230.16;5052466;28;20036;-84
2023/05/29 04:51:06;;;;;;;14.38;3.08;;;;;;;9.16;72.49;102226.69;5051120;28;20432;-84
2023/05/29 04:53:31;;;;;;;15.75;3.17;;;;;;;9.10;73.18;102243.44;5049517;28;20675;-83
2023/05/29 04:55:57;;;;;;;;;;;;;;;9.07;73.26;102251.78;5051279;28;20041;-84
2023/05/29 04:58:25;;;;;;;12.30;2.60;;;;;;;9.09;73.12;102255.16;5049690;28;20031;-84
2023/05/29 05:00:53;;;;;;;13.23;2.50;;;;;;;9.42;72.00;102257.34;5050213;28;20475;-85
2023/05/29 05:03:18;;;;;;;18.05;3.35;;;;;;;10.10;69.41;102264.72;5051099;28;20723;-82
2023/05/29 05:05:44;;;;;;;12.85;2.80;;;;;;;10.57;67.75;102260.78;5050141;28;20064;-83
2023/05/29 05:08:11;;;;;;;;;;;;;;;10.91;65.60;102262.56;5049897;28;20021;-83
2023/05/29 05:10:36;;;;;;;;;;;;;;;11.17;65.44;102277.78;5050501;28;19940;-84
2023/05/29 05:13:02;;;;;;;16.77;2.72;;;;;;;11.45;63.34;102273.97;5050819;28;19951;-84
2023/05/29 05:15:28;;;;;;;16.95;2.83;;;;;;;11.70;62.76;102276.63;5048024;28;20029;-83
2023/05/29 05:17:53;;;;;;;12.55;2.85;;;;;;;11.94;61.61;102271.22;5047712;28;20033;-84
2023/05/29 05:20:18;;;;;;;17.40;3.08;;;;;;;11.90;62.04;102269.88;5046868;28;20036;-84
2023/05/29 05:22:44;;;;;;;14.77;3.50;;;;;;;12.30;60.83;102267.28;5046825;28;20029;-85
2023/05/29 05:25:10;;;;;;;12.55;2.70;;;;;;;12.62;59.78;102270.03;5048665;28;20068;-84
2023/05/29 05:27:35;;;;;;;16.30;2.80;;;;;;;12.13;59.91;102270.03;5044667;28;20032;-83
2023/05/29 05:30:02;;;;;;;11.32;3.00;;;;;;;12.13;60.34;102269.19;5042005;28;20044;-84
2023/05/29 05:32:28;;;;;;;13.35;2.30;;;;;;;12.24;60.48;102278.78;5044696;28;20032;-84
2023/05/29 05:34:53;;;;;;;10.75;2.65;;;;;;;12.38;59.76;102272.69;5048138;28;20021;-89
2023/05/29 05:37:18;;;;;;;16.20;3.13;;;;;;;12.37;59.70;102270.13;5060200;28;20901;-83
2023/05/29 05:39:44;;;;;;;13.80;2.80;;;;;;;12.65;58.88;102280.50;5053924;28;20041;-83
2023/05/29 05:42:09;;;;;;;16.58;2.78;;;;;;;12.97;57.88;102284.88;5051886;28;20036;-82
2023/05/29 05:44:35;;;;;;;15.32;2.97;;;;;;;13.25;57.18;102286.25;5049975;28;20059;-84
2023/05/29 05:47:00;;;;;;;15.43;2.95;;;;;;;13.43;56.71;102283.28;5058688;28;20100;-84
2023/05/29 05:49:26;;;;;;;14.13;2.63;;;;;;;13.76;55.35;102270.34;5039431;28;20102;-79
2023/05/29 05:51:51;;;;;;;13.73;2.88;;;;;;;13.68;55.10;102278.50;5045529;28;20030;-83
2023/05/29 05:54:16;;;;;;;15.30;2.70;;;;;;;13.86;54.94;102275.47;5057614;28;20035;-82
2023/05/29 05:56:42;;;;;;;15.48;2.83;;;;;;;14.13;54.45;102272.31;5073825;28;20043;-81
2023/05/29 05:59:07;;;;;;;11.45;2.75;;;;;;;14.10;53.55;102279.81;5059412;28;20472;-82
2023/05/29 06:01:33;;;;;;;12.65;2.95;;;;;;;14.64;53.38;102283.25;5055088;28;20021;-81
2023/05/29 06:03:58;;;;;;;12.93;2.78;;;;;;;15.23;51.32;102261.63;5048928;28;20464;-82
2023/05/29 06:06:24;;;;;;;8.75;2.40;;;;;;;15.00;51.24;102268.88;5052692;28;20043;-83
2023/05/29 06:08:49;;;;;;;17.00;2.70;;;;;;;14.96;50.97;102262.19;5054043;28;20033;-82
2023/05/29 06:11:14;;;;;;;15.57;2.70;;;;;;;15.48;50.47;102283.78;5047566;28;20021;-82
2023/05/29 06:13:40;;;;;;;12.40;2.90;;;;;;;15.30;50.19;102282.38;5049148;28;20078;-81
2023/05/29 06:16:05;;;;;;;14.32;3.05;;;;;;;15.93;49.02;102279.97;5051427;28;20365;-80
2023/05/29 06:18:31;;;;;;;12.38;2.65;;;;;;;16.09;48.47;102276.97;5046473;28;20032;-80
2023/05/29 06:20:56;;;;;;;8.88;2.38;;;;;;;16.21;48.14;102296.28;5051314;28;20020;-81
2023/05/29 06:23:22;;;;;;;14.00;2.70;;;;;;;16.01;47.77;102290.72;5038362;28;20030;-81
2023/05/29 06:25:47;;;;;;;13.63;2.95;;;;;;;15.79;48.39;102293.44;5048053;28;20028;-80
2023/05/29 06:28:13;;;;;;;10.73;2.53;;;;;;;15.57;48.68;102282.59;5060590;28;20041;-81
2023/05/29 06:30:39;;;;;;;15.75;3.08;;;;;;;16.33;47.81;102294.66;5055213;28;20043;-80
2023/05/29 06:33:05;;;;;;;10.38;2.63;;;;;;;17.08;46.32;102288.53;5061652;28;20039;-82
2023/05/29 06:35:30;;;;;;;11.73;2.60;;;;;;;17.52;44.15;102301.78;5051169;28;20029;-82
2023/05/29 06:37:56;;;;;;;12.90;2.90;;;;;;;18.04;43.39;102299.31;5046809;28;20831;-82
2023/05/29 06:40:21;;;;;;;11.13;2.80;;;;;;;17.67;43.83;102304.31;5049966;28;20031;-81
2023/05/29 06:42:47;;;;;;;17.10;3.00;;;;;;;17.69;43.49;102299.50;5054684;28;20029;-80
2023/05/29 06:45:15;;;;;;;7.47;2.60;;;;;;;17.47;44.60;102299.69;5051494;28;20017;-85
2023/05/29 06:47:41;;;;;;;13.35;3.60;;;;;;;17.46;43.61;102294.47;5030467;28;20362;-82
2023/05/29 06:50:07;;;;;;;9.95;2.88;;;;;;;17.62;43.37;102301.38;5048251;28;20098;-81
2023/05/29 06:52:33;;;;;;;17.88;3.10;;;;;;;17.94;42.90;102307.88;5048990;28;20040;-81
2023/05/29 06:54:58;;;;;;;10.55;2.80;;;;;;;18.40;41.40;102297.13;5058661;28;20430;-82
2023/05/29 06:57:23;;;;;;;13.05;3.00;;;;;;;18.97;40.79;102299.25;5061360;28;20032;-83
2023/05/29 06:59:49;;;;;;;10.40;2.72;;;;;;;19.78;39.83;102316.75;5063873;28;20411;-82
2023/05/29 07:02:14;;;;;;;10.38;2.63;;;;;;;20.12;38.32;102313.75;5050036;28;20023;-82
2023/05/29 07:04:39;;;;;;;12.25;2.88;;;;;;;20.21;37.60;102314.31;5050644;28;20412;-85
2023/05/29 07:07:05;;;;;;;11.95;2.83;;;;;;;19.66;38.72;102313.06;5048401;28;20037;-86
2023/05/29 07:09:30;;;;;;;12.50;2.80;;;;;;;19.26;39.25;102300.56;5052453;28;20029;-86
2023/05/29 07:11:55;;;;;;;11.50;2.85;;;;;;;19.74;38.40;102310.09;5047849;28;20041;-84
2023/05/29 07:14:21;;;;;;;8.35;2.67;;;;;;;19.72;38.14;102320.41;5049591;28;20032;-84
2023/05/29 07:16:46;;;;;;;11.05;2.90;;;;;;;19.12;39.05;102318.06;5052157;28;20025;-84
2023/05/29 07:19:13;;;;;;;8.20;2.75;;;;;;;19.07;39.24;102315.97;5050763;28;20051;-84
2023/05/29 07:21:39;;;;;;;8.93;2.67;;;;;;;19.39;38.83;102308.66;5049619;28;20082;-84
2023/05/29 07:24:05;;;;;;;9.60;2.85;;;;;;;19.55;38.07;102314.63;5034216;28;20024;-84
2023/05/29 07:26:33;;;;;;;9.18;2.80;;;;;;;19.73;38.37;102315.75;5049558;28;20412;-84
2023/05/29 07:28:59;;;;;;;10.93;2.88;;;;;;;19.20;38.37;102321.38;5066856;28;20485;-84
2023/05/29 07:31:24;;;;;;;10.60;2.97;;;;;;;19.51;38.40;102322.44;5071150;28;20040;-84
2023/05/29 07:33:50;;;;;;;9.57;3.00;;;;;;;20.38;37.63;102329.06;5070817;28;20021;-84
2023/05/29 07:36:17;;;;;;;8.32;2.70;;;;;;;20.79;35.99;102312.22;5070385;28;20033;-84
2023/05/29 07:38:42;;;;;;;11.02;3.10;;;;;;;20.94;35.85;102339.16;5070059;28;20483;-84
2023/05/29 07:41:07;;;;;;;8.77;2.67;;;;;;;21.60;34.63;102329.19;5061067;28;20028;-83
2023/05/29 07:43:33;;;;;;;10.02;2.72;;;;;;;21.04;35.59;102334.81;5032473;28;20021;-83
2023/05/29 07:45:58;;;;;;;9.88;2.70;;;;;;;20.69;36.04;102335.44;5051118;28;20031;-84
2023/05/29 07:48:24;;;;;;;11.77;2.75;;;;;;;21.34;34.54;102325.75;5049533;28;20025;-84
2023/05/29 07:50:49;;;;;;;8.80;2.50;;;;;;;22.60;32.70;102325.72;5049951;28;20112;-84
2023/05/29 07:53:15;;;;;;;6.82;2.25;;;;;;;23.04;31.93;102333.47;5055020;28;20025;-84
2023/05/29 07:55:40;;;;;;;10.90;2.90;;;;;;;22.53;32.29;102341.47;5070250;28;20021;-84
2023/05/29 07:58:06;;;;;;;9.15;2.47;;;;;;;22.38;32.47;102340.03;5070983;28;20036;-83
2023/05/29 08:00:33;;;;;;;10.10;2.80;;;;;;;22.38;32.59;102333.75;5071611;28;20531;-84
2023/05/29 08:02:58;;;;;;;10.13;2.55;;;;;;;21.91;32.97;102329.09;5070625;28;20488;-85
2023/05/29 08:05:24;;;;;;;8.98;2.50;;;;;;;22.46;32.60;102335.31;5053548;28;20096;-85
2023/05/29 08:07:49;;;;;;;7.47;2.47;;;;;;;22.75;32.35;102329.88;5058818;28;20057;-84
2023/05/29 08:10:15;;;;;;;8.43;2.60;;;;;;;23.69;30.22;102338.75;5048147;28;20029;-84
2023/05/29 08:12:40;;;;;;;8.68;2.60;;;;;;;23.52;30.85;102347.00;5049857;28;20025;-84
2023/05/29 08:15:06;;;;;;;8.32;2.55;;;;;;;23.25;30.85;102342.94;5064582;28;20111;-84
2023/05/29 08:17:31;;;;;;;8.13;2.80;;;;;;;22.97;31.33;102352.84;5069377;28;20170;-84
2023/05/29 08:19:57;;;;;;;10.68;2.55;;;;;;;23.77;30.10;102355.69;5069363;28;20517;-84
2023/05/29 08:22:27;;;;;;;10.35;2.53;;;;;;;22.53;31.86;102360.69;5064239;28;20021;-84
2023/05/29 08:24:52;;;;;;;11.20;2.83;;;;;;;22.89;31.21;102344.16;5032602;28;20358;-85
2023/05/29 08:27:18;;;;;;;7.93;2.70;;;;;;;23.59;30.67;102348.50;5056904;28;20239;-84
2023/05/29 08:29:43;;;;;;;7.63;2.50;;;;;;;23.29;30.62;102337.81;5068205;28;20029;-85
2023/05/29 08:32:08;;;;;;;8.93;2.25;;;;;;;22.65;31.76;102344.22;5069663;28;20021;-84
2023/05/29 08:34:34;;;;;;;9.13;2.67;;;;;;;22.96;31.45;102342.94;5069943;28;20507;-85
2023/05/29 08:36:59;;;;;;;5.47;2.13;;;;;;;24.09;29.68;102342.44;5069046;28;20134;-85
2023/05/29 08:39:25;;;;;;;10.35;2.70;;;;;;;24.82;28.83;102345.09;5065413;28;20029;-82
2023/05/29 08:42:07;;;;;;;9.98;2.70;;;;;;;25.27;27.73;102354.94;5061380;28;20025;-85
2023/05/29 08:44:34;;;;;;;6.70;2.75;;;;;;;24.76;28.06;102348.84;5031857;28;20114;-84
2023/05/29 08:47:06;;;;;;;10.88;2.72;;;;;;;24.38;28.55;102354.13;5032377;28;20416;-85
2023/05/29 08:49:37;;;;;;;7.65;2.33;;;;;;;24.09;28.72;102353.44;5052979;28;20043;-85
2023/05/29 08:52:10;;;;;;;9.13;3.08;;;;;;;24.03;29.86;102358.03;5054097;28;20028;-85
2023/05/29 08:54:35;;;;;;;8.57;2.40;;;;;;;23.80;29.52;102354.34;5055954;28;20525;-85
2023/05/29 08:57:04;;;;;;;10.52;3.20;;;;;;;23.70;30.01;102354.19;5019842;28;20025;-85
2023/05/29 08:59:29;;;;;;;8.88;2.53;;;;;;;23.45;30.08;102350.75;5034926;28;20022;-85
2023/05/29 09:01:55;;;;;;;9.40;2.70;;;;;;;23.53;30.26;102354.16;5035560;28;20033;-85
2023/05/29 09:04:20;;;;;;;7.32;2.50;;;;;;;23.18;30.65;102356.00;5024843;28;20020;-84
2023/05/29 09:06:48;;;;;;;9.73;2.67;;;;;;;23.83;29.81;102356.59;5056211;28;20350;-85
2023/05/29 09:09:14;;;;;;;8.02;2.55;;;;;;;23.75;29.72;102357.84;5054577;28;20029;-84
2023/05/29 09:11:39;;;;;;;8.48;2.67;;;;;;;23.55;30.16;102347.34;5033926;28;20036;-84
2023/05/29 09:14:05;;;;;;;8.75;2.72;;;;;;;23.74;30.10;102350.69;5042817;28;20111;-85
2023/05/29 09:16:30;;;;;;;10.23;2.70;;;;;;;24.36;29.10;102346.13;5033661;28;20033;-85
2023/05/29 09:19:06;;;;;;;6.78;2.60;;;;;;;23.96;29.65;102347.19;5033138;28;20025;-85
2023/05/29 09:21:33;;;;;;;5.90;2.47;;;;;;;24.09;29.98;102342.44;5033253;28;20080;-85
2023/05/29 09:24:05;;;;;;;9.70;2.58;;;;;;;23.83;29.71;102342.03;5034161;28;20064;-85
2023/05/29 09:26:31;;;;;;;12.98;3.00;;;;;;;22.82;31.68;102345.13;5032577;28;20118;-85
2023/05/29 09:28:57;;;;;;;8.55;2.70;;;;;;;23.44;30.29;102346.31;5053280;28;20114;-85
2023/05/29 09:31:23;;;;;;;6.72;2.50;;;;;;;23.15;30.86;102348.22;5036256;28;20303;-84
2023/05/29 09:33:49;;;;;;;7.32;2.55;;;;;;;22.62;31.84;102350.19;5052217;28;20271;-84
2023/05/29 09:36:21;;;;;;;9.95;2.75;;;;;;;23.40;30.69;102356.13;5052483;28;20041;-85
2023/05/29 09:38:47;;;;;;;11.13;3.03;;;;;;;23.96;30.54;102355.44;5052481;28;20028;-85
2023/05/29 09:41:12;;;;;;;10.05;2.95;;;;;;;23.44;30.91;102351.81;5052048;28;20380;-85
2023/05/29 09:43:39;;;;;;;6.90;2.60;;;;;;;23.30;30.65;102339.44;5053274;28;20025;-85
2023/05/29 09:46:06;;;;;;;8.40;2.78;;;;;;;23.15;31.06;102353.72;5045266;28;20291;-85
2023/05/29 09:48:31;;;;;;;11.40;2.63;;;;;;;24.54;29.69;102349.66;5075569;28;20021;-85
2023/05/29 09:50:57;;;;;;;5.50;2.10;;;;;;;25.46;28.04;102342.75;5090601;28;20100;-85
2023/05/29 09:53:24;;;;;;;7.50;2.53;;;;;;;25.94;27.53;102343.69;5041256;28;20020;-85
2023/05/29 09:55:59;;;;;;;9.85;2.85;;;;;;;25.03;28.20;102340.63;5072703;28;20020;-86
2023/05/29 09:58:25;;;;;;;7.85;2.90;;;;;;;25.21;28.22;102349.63;5061112;28;20123;-85
2023/05/29 10:00:53;;;;;;;10.05;3.08;;;;;;;24.81;28.50;102337.91;5053478;28;20029;-85
2023/05/29 10:03:21;;;;;;;8.30;2.70;;;;;;;24.38;28.65;102332.94;5052057;28;20021;-85
2023/05/29 10:05:50;;;;;;;9.27;2.97;;;;;;;23.94;29.38;102327.34;5052979;28;20025;-85
2023/05/29 10:08:17;;;;;;;10.15;2.70;;;;;;;23.97;29.67;102326.88;5053356;28;20024;-85
2023/05/29 10:10:47;;;;;;;9.15;2.90;;;;;;;23.68;29.73;102326.91;5051515;28;20057;-85
2023/05/29 10:13:13;;;;;;;8.85;2.45;;;;;;;24.25;29.50;102341.56;5050592;28;20036;-85
2023/05/29 10:15:45;;;;;;;7.60;2.83;;;;;;;25.19;28.97;102336.13;5051809;28;20110;-84
2023/05/29 10:18:34;;;;;;;7.85;2.83;;;;;;;25.47;27.38;102342.47;5051511;28;20104;-84
2023/05/29 10:21:00;;;;;;;8.88;2.90;;;;;;;24.74;28.47;102338.13;5035974;28;20098;-84
2023/05/29 10:23:25;;;;;;;9.13;2.83;;;;;;;25.09;28.19;102344.28;5051387;28;20092;-84
2023/05/29 10:26:01;;;;;;;7.90;2.78;;;;;;;25.85;27.61;102337.81;5032874;28;20017;-85
2023/05/29 10:28:27;;;;;;;8.32;2.60;;;;;;;25.62;27.34;102335.41;5018755;28;20021;-85
2023/05/29 10:31:06;;;;;;;7.53;2.80;;;;;;;25.08;28.01;102335.19;5050958;28;20031;-83
2023/05/29 10:34:03;;;;;;;10.73;2.70;;;;;;;24.74;28.89;102335.34;5033460;28;20033;-84
2023/05/29 10:36:32;;;;;;;7.78;2.70;;;;;;;25.30;28.13;102325.19;5038810;28;20021;-84
2023/05/29 10:38:58;;;;;;;6.43;2.70;;;;;;;25.90;26.62;102328.75;5034597;28;20025;-85
2023/05/29 10:41:26;;;;;;;9.68;2.95;;;;;;;26.08;26.49;102337.69;5032723;28;20033;-84
2023/05/29 10:43:58;;;;;;;10.60;2.67;;;;;;;25.94;27.15;102329.06;5050806;28;20040;-84
2023/05/29 10:46:42;;;;;;;10.55;3.00;;;;;;;26.64;26.57;102326.16;5051603;28;20178;-84
2023/05/29 10:49:17;;;;;;;8.63;2.80;;;;;;;26.84;26.35;102321.78;5051002;28;20041;-84
2023/05/29 10:51:43;;;;;;;7.70;2.90;;;;;;;26.84;25.51;102319.03;5065051;28;20071;-84
2023/05/29 10:54:08;;;;;;;6.35;2.42;;;;;;;26.11;26.35;102324.25;5071587;28;20333;-86
2023/05/29 10:56:34;;;;;;;9.27;3.10;;;;;;;25.38;28.06;102322.78;5052885;28;20028;-83
2023/05/29 10:59:01;;;;;;;8.63;2.28;;;;;;;26.02;26.84;102312.00;5070972;28;20035;-86
2023/05/29 11:01:27;;;;;;;10.30;2.70;;;;;;;25.11;27.90;102311.78;5071141;28;20024;-84
2023/05/29 11:04:15;;;;;;;6.85;2.60;;;;;;;24.76;27.33;102321.31;5070389;28;20028;-84
2023/05/29 11:06:41;;;;;;;7.68;2.67;;;;;;;24.66;28.19;102314.59;5049384;28;20493;-82
2023/05/29 11:09:08;;;;;;;8.90;2.70;;;;;;;24.80;28.55;102300.44;5032787;28;20028;-82
2023/05/29 11:11:36;;;;;;;7.60;2.90;;;;;;;25.26;28.08;102313.88;5014965;28;20021;-85
2023/05/29 11:14:04;;;;;;;7.45;2.60;;;;;;;25.52;28.23;102317.72;5051151;28;20389;-85
2023/05/29 11:16:32;;;;;;;9.15;2.78;;;;;;;25.40;27.20;102309.56;5050672;28;20052;-85
2023/05/29 11:18:58;;;;;;;8.50;3.20;;;;;;;25.90;26.88;102312.19;5050043;28;20079;-85
2023/05/29 11:21:49;;;;;;;7.90;2.80;;;;;;;26.28;26.18;102313.00;5049887;28;20078;-84
2023/05/29 11:24:21;;;;;;;8.90;2.92;;;;;;;26.31;26.01;102312.47;5073318;28;20094;-84
2023/05/29 11:26:47;;;;;;;11.18;2.95;;;;;;;25.84;27.23;102310.50;5052127;28;20040;-84
2023/05/29 11:29:13;;;;;;;9.25;2.80;;;;;;;26.01;26.08;102300.13;5072437;28;20357;-84
2023/05/29 11:31:39;;;;;;;9.00;2.80;;;;;;;25.71;26.58;102303.53;5053446;28;20062;-84
2023/05/29 11:34:05;;;;;;;7.97;2.60;;;;;;;25.83;26.33;102304.16;5069914;28;20029;-85